Time;durP1;ratioP1;P1;durP2;ratioP2;P2;SDS_P1;SDS_P2;PMS_P1;PMS_P2;Temp;Humidity;BMP_temperature;BMP_pressure;BME280_temperature;BME280_humidity;BME280_pressure;Samples;Min_cycle;Max_cycle;Signal;HPM_P1;HPM_P2
2023/06/06 00:00:28;;;;;;;;;;;;;;;17.87;100.00;99639.66;5023867;28;20380;-74
2023/06/06 00:02:54;;;;;;;;;;;;;;;17.85;100.00;99647.00;5020802;28;19917;-75
2023/06/06 00:05:25;;;;;;;;;;;;;;;17.79;100.00;99648.59;5020140;28;19925;-74
2023/06/06 00:07:53;;;;;;;;;;;;;;;17.75;100.00;99651.81;5019527;28;19925;-76
2023/06/06 00:10:18;;;;;;;;;;;;;;;17.67;100.00;99646.59;5015219;28;19923;-76
2023/06/06 00:12:45;;;;;;;;;;;;;;;17.73;100.00;99640.53;5021597;28;20008;-76
2023/06/06 00:15:11;;;;;;;;;;;;;;;17.67;100.00;99643.94;5016992;28;20325;-75
2023/06/06 00:17:38;;;;;;;;;;;;;;;17.73;100.00;99643.19;5019314;28;20268;-74
2023/06/06 00:20:09;;;;;;;;;;;;;;;17.72;100.00;99641.53;5011796;28;19923;-75
2023/06/06 00:22:36;;;;;;;;;;;;;;;17.74;100.00;99634.16;5013098;28;20293;-76
2023/06/06 00:25:05;;;;;;;;;;;;;;;17.75;100.00;99630.47;5015001;28;20254;-75
2023/06/06 00:27:33;;;;;;;;;;;;;;;17.76;100.00;99632.13;5013519;28;20262;-73
2023/06/06 00:29:59;;;;;;;;;;;;;;;17.77;100.00;99636.47;5015963;28;20616;-74
2023/06/06 00:32:27;;;;;;;;;;;;;;;17.68;100.00;99640.22;5013927;28;20270;-73
2023/06/06 00:34:54;;;;;;;;;;;;;;;17.58;100.00;99636.00;5014609;28;19925;-74
2023/06/06 00:37:19;;;;;;;;;;;;;;;17.66;100.00;99631.59;5015355;28;19921;-73
2023/06/06 00:39:47;;;;;;;;;;;;;;;17.73;100.00;99632.53;5013659;28;19924;-74
2023/06/06 00:42:12;;;;;;;;;;;;;;;17.79;100.00;99637.09;5017297;28;19917;-74
2023/06/06 00:44:38;;;;;;;;;;;;;;;17.85;100.00;99636.34;5014510;28;19990;-73
2023/06/06 00:47:03;;;;;;;;;;;;;;;17.86;100.00;99638.00;5008949;28;19928;-74
2023/06/06 00:49:29;;;;;;;;;;;;;;;17.82;100.00;99631.38;5013115;28;20422;-74
2023/06/06 00:51:58;;;;;;;;;;;;;;;17.80;100.00;99630.72;5017107;28;19995;-73
2023/06/06 00:54:25;;;;;;;;;;;;;;;17.75;100.00;99625.97;5017440;28;19924;-74
2023/06/06 00:56:51;;;;;;;;;;;;;;;17.63;100.00;99632.78;5009486;28;19964;-75
2023/06/06 00:59:18;;;;;;;;;;;;;;;17.50;100.00;99632.56;5015078;28;19921;-73
2023/06/06 01:01:43;;;;;;;;;;;;;;;17.42;100.00;99630.84;5015080;28;20012;-74
2023/06/06 01:04:10;;;;;;;;;;;;;;;17.35;100.00;99632.59;5014332;28;20320;-74
2023/06/06 01:06:37;;;;;;;;;;;;;;;17.34;100.00;99624.78;5019509;28;19928;-73
2023/06/06 01:09:07;;;;;;;;;;;;;;;17.35;100.00;99629.09;5007438;28;19917;-75
2023/06/06 01:11:44;;;;;;;;;;;;;;;17.34;100.00;99612.28;5018502;28;19917;-74
2023/06/06 01:14:18;;;;;;;;;;;;;;;17.39;100.00;99611.72;5018882;28;20012;-75
2023/06/06 01:16:47;;;;;;;;;;;;;;;17.39;100.00;99620.53;4992300;28;19932;-74
2023/06/06 01:19:16;;;;;;;;;;;;;;;17.28;100.00;99628.19;5015327;28;19923;-74
2023/06/06 01:21:41;;;;;;;;;;;;;;;17.22;100.00;99628.91;5015048;28;20008;-73
2023/06/06 01:24:08;;;;;;;;;;;;;;;17.19;100.00;99630.13;5014744;28;19959;-74
2023/06/06 01:26:35;;;;;;;;;;;;;;;17.20;100.00;99629.09;5012949;28;19924;-74
2023/06/06 01:29:01;;;;;;;;;;;;;;;17.08;100.00;99627.91;5016023;28;19957;-74
2023/06/06 01:31:31;;;;;;;;;;;;;;;17.10;100.00;99631.19;5003907;28;19956;-74
2023/06/06 01:34:04;;;;;;;;;;;;;;;17.15;100.00;99623.47;5000868;28;19921;-74
2023/06/06 01:36:33;;;;;;;;;;;;;;;17.18;100.00;99623.13;5016101;28;19917;-74
2023/06/06 01:38:58;;;;;;;;;;;;;;;17.20;100.00;99621.09;5013004;28;19917;-74
2023/06/06 01:41:26;;;;;;;;;;;;;;;17.27;100.00;99621.19;5016595;28;19922;-75
2023/06/06 01:43:54;;;;;;;;;;;;;;;17.28;100.00;99623.66;4992871;28;20397;-73
2023/06/06 01:46:22;;;;;;;;;;;;;;;17.26;100.00;99633.69;5013636;28;20401;-73
2023/06/06 01:48:47;;;;;;;;;;;;;;;17.30;100.00;99627.00;5015299;28;19963;-74
2023/06/06 01:51:13;;;;;;;;;;;;;;;17.34;100.00;99628.28;5011636;28;20000;-74
2023/06/06 01:53:39;;;;;;;;;;;;;;;17.36;100.00;99631.59;5017643;28;19917;-74
2023/06/06 01:56:05;;;;;;;;;;;;;;;17.35;100.00;99624.59;5015797;28;19925;-73
2023/06/06 01:58:31;;;;;;;;;;;;;;;17.30;100.00;99627.00;5011276;28;19928;-74
2023/06/06 02:00:56;;;;;;;;;;;;;;;17.29;100.00;99636.00;5010692;28;19917;-74
2023/06/06 02:03:22;;;;;;;;;;;;;;;17.27;100.00;99638.00;5009916;28;19917;-74
2023/06/06 02:05:48;;;;;;;;;;;;;;;17.32;100.00;99634.81;4999055;28;20408;-73
2023/06/06 02:08:13;;;;;;;;;;;;;;;17.35;100.00;99635.28;5016265;28;19949;-73
2023/06/06 02:10:38;;;;;;;;;;;;;;;17.41;100.00;99639.88;5013969;28;19917;-73
2023/06/06 02:13:06;;;;;;;;;;;;;;;17.43;100.00;99631.69;4994108;28;19917;-73
2023/06/06 02:15:32;;;;;;;;;;;;;;;17.45;100.00;99633.13;5006710;28;19924;-73
2023/06/06 02:17:57;;;;;;;;;;;;;;;17.43;100.00;99640.53;4987365;28;20352;-73
2023/06/06 02:20:24;;;;;;;;;;;;;;;17.44;100.00;99628.81;5010827;28;19917;-73
2023/06/06 02:22:49;;;;;;;;;;;;;;;17.47;100.00;99633.78;5009538;28;19998;-73
2023/06/06 02:25:15;;;;;;;;;;;;;;;17.49;100.00;99629.13;5007342;28;19921;-73
2023/06/06 02:27:43;;;;;;;;;;;;;;;17.53;100.00;99632.22;5007363;28;19953;-73
2023/06/06 02:30:10;;;;;;;;;;;;;;;17.55;100.00;99628.34;4995233;28;20378;-73
2023/06/06 02:32:35;;;;;;;;;;;;;;;17.57;100.00;99629.00;5015911;28;19932;-72
2023/06/06 02:35:03;;;;;;;;;;;;;;;17.57;100.00;99630.81;5006360;28;19921;-73
2023/06/06 02:37:30;;;;;;;;;;;;;;;17.50;100.00;99633.41;5011621;28;19924;-76
2023/06/06 02:39:55;;;;;;;;;;;;;;;17.42;100.00;99625.53;5009453;28;20610;-73
2023/06/06 02:42:21;;;;;;;;;;;;;;;17.39;100.00;99630.38;5014670;28;19918;-72
2023/06/06 02:44:47;;;;;;;;;;;;;;;17.33;100.00;99637.28;5010556;28;19917;-73
2023/06/06 02:47:12;;;;;;;;;;;;;;;17.31;100.00;99636.66;5001100;28;19921;-73
2023/06/06 02:49:43;;;;;;;;;;;;;;;17.23;100.00;99628.75;5014723;28;19916;-73
2023/06/06 02:52:08;;;;;;;;;;;;;;;17.21;100.00;99625.41;4993606;28;19924;-74
2023/06/06 02:54:34;;;;;;;;;;;;;;;17.20;100.00;99631.75;5017861;28;19971;-73
2023/06/06 02:57:00;;;;;;;;;;;;;;;17.15;100.00;99629.66;5010038;28;19921;-72
2023/06/06 02:59:26;;;;;;;;;;;;;;;17.09;100.00;99629.53;5028257;23;20016;-77
2023/06/06 03:01:51;;;;;;;;;;;;;;;17.01;100.00;99632.31;5019166;28;20352;-78
2023/06/06 03:04:17;;;;;;;;;;;;;;;16.92;100.00;99623.56;5030747;28;19917;-80
2023/06/06 03:06:42;;;;;;;;;;;;;;;16.89;100.00;99631.94;5026317;28;19917;-78
2023/06/06 03:09:09;;;;;;;;;;;;;;;16.89;100.00;99625.75;5024979;28;19921;-80
2023/06/06 03:11:34;;;;;;;;;;;;;;;16.90;100.00;99625.59;5013432;28;20387;-79
2023/06/06 03:14:01;;;;;;;;;;;;;;;16.86;100.00;99628.78;5008333;28;19917;-79
2023/06/06 03:16:34;;;;;;;;;;;;;;;16.89;100.00;99628.44;5011509;28;19917;-78
2023/06/06 03:19:03;;;;;;;;;;;;;;;16.89;100.00;99629.25;5018079;28;19921;-78
2023/06/06 03:21:30;;;;;;;;;;;;;;;16.88;100.00;99637.44;5010730;28;19917;-77
2023/06/06 03:23:58;;;;;;;;;;;;;;;16.85;100.00;99637.81;5013012;28;19921;-77
2023/06/06 03:26:26;;;;;;;;;;;;;;;16.83;100.00;99626.50;5006762;28;20280;-78
2023/06/06 03:28:52;;;;;;;;;;;;;;;16.79;100.00;99629.50;5009706;28;19917;-78
2023/06/06 03:31:23;;;;;;;;;;;;;;;16.82;100.00;99627.50;5009837;28;19917;-78
2023/06/06 03:33:50;;;;;;;;;;;;;;;16.82;100.00;99631.00;5011216;28;19924;-79
2023/06/06 03:36:16;;;;;;;;;;;;;;;16.84;100.00;99633.47;5009893;28;20027;-77
2023/06/06 03:38:42;;;;;;;;;;;;;;;16.88;100.00;99634.75;5012681;28;20292;-77
2023/06/06 03:41:08;;;;;;;;;;;;;;;16.76;100.00;99624.53;5024687;28;19917;-78
2023/06/06 03:43:34;;;;;;;;;;;;;;;16.78;100.00;99638.53;5006461;28;19967;-77
2023/06/06 03:46:00;;;;;;;;;;;;;;;16.83;100.00;99629.16;5030392;28;19921;-77
2023/06/06 03:48:25;;;;;;;;;;;;;;;16.84;100.00;99625.47;5013249;28;20003;-77
2023/06/06 03:50:51;;;;;;;;;;;;;;;16.70;100.00;99629.75;5029439;28;20004;-78
2023/06/06 03:53:16;;;;;;;;;;;;;;;16.67;100.00;99630.13;5010779;28;19917;-76
2023/06/06 03:55:44;;;;;;;;;;;;;;;16.68;100.00;99642.44;5011270;28;19921;-77
2023/06/06 03:58:10;;;;;;;;;;;;;;;16.67;100.00;99636.28;5030213;28;19924;-78
2023/06/06 04:00:37;;;;;;;;;;;;;;;16.68;100.00;99637.94;5030966;28;19972;-78
2023/06/06 04:03:05;;;;;;;;;;;;;;;16.67;100.00;99641.59;5026142;28;19925;-80
2023/06/06 04:05:33;;;;;;;;;;;;;;;16.53;100.00;99639.69;5013054;28;19994;-79
2023/06/06 04:07:59;;;;;;;;;;;;;;;16.50;100.00;99634.72;5024216;28;19996;-79
2023/06/06 04:10:24;;;;;;;;;;;;;;;16.51;100.00;99635.53;5001181;28;19948;-79
2023/06/06 04:12:51;;;;;;;;;;;;;;;16.44;100.00;99646.09;5024287;28;19924;-79
2023/06/06 04:15:17;;;;;;;;;;;;;;;16.33;100.00;99633.19;5007007;28;19924;-78
2023/06/06 04:17:42;;;;;;;;;;;;;;;16.29;100.00;99631.91;5008464;28;19921;-78
2023/06/06 04:20:08;;;;;;;;;;;;;;;16.30;100.00;99638.88;5030793;28;19917;-79
2023/06/06 04:22:34;;;;;;;;;;;;;;;16.16;100.00;99637.81;5024413;28;19924;-79
2023/06/06 04:24:59;;;;;;;;;;;;;;;16.23;100.00;99637.94;5008259;28;20783;-79
2023/06/06 04:27:25;;;;;;;;;;;;;;;16.29;100.00;99630.06;5026521;28;19920;-80
2023/06/06 04:29:51;;;;;;;;;;;;;;;16.26;100.00;99627.75;5024408;28;20354;-80
2023/06/06 04:32:21;;;;;;;;;;;;;;;16.18;100.00;99634.97;5008945;28;20002;-80
2023/06/06 04:34:51;;;;;;;;;;;;;;;16.20;100.00;99638.28;5011782;28;20395;-80
2023/06/06 04:37:18;;;;;;;;;;;;;;;16.20;100.00;99646.28;5010821;28;19924;-80
2023/06/06 04:39:52;;;;;;;;;;;;;;;16.17;100.00;99639.47;5010169;28;20030;-80
2023/06/06 04:42:19;;;;;;;;;;;;;;;16.18;100.00;99642.97;5019332;28;19949;-80
2023/06/06 04:44:46;;;;;;;;;;;;;;;16.25;100.00;99646.56;5030808;28;19924;-80
2023/06/06 04:47:12;;;;;;;;;;;;;;;16.34;100.00;99656.16;5014465;28;19916;-80
2023/06/06 04:49:39;;;;;;;;;;;;;;;16.44;100.00;99648.75;5031949;28;20367;-79
2023/06/06 04:52:08;;;;;;;;;;;;;;;16.53;100.00;99655.69;5029393;28;19924;-79
2023/06/06 04:54:34;;;;;;;;;;;;;;;16.62;100.00;99654.63;5030052;28;19933;-78
2023/06/06 04:57:02;;;;;;;;;;;;;;;16.66;100.00;99650.63;5032713;28;19925;-80
2023/06/06 04:59:28;;;;;;;;;;;;;;;16.74;100.00;99658.53;5029673;28;19923;-80
2023/06/06 05:01:55;;;;;;;;;;;;;;;16.82;100.00;99656.81;5033301;28;19999;-82
2023/06/06 05:04:20;;;;;;;;;;;;;;;16.64;100.00;99655.28;5027489;28;19925;-82
2023/06/06 05:06:46;;;;;;;;;;;;;;;16.47;100.00;99656.41;5025455;28;19924;-82
2023/06/06 05:09:13;;;;;;;;;;;;;;;16.54;100.00;99651.19;5029635;28;20292;-82
2023/06/06 05:11:43;;;;;;;;;;;;;;;16.46;100.00;99644.09;5030784;28;19924;-80
2023/06/06 05:14:09;;;;;;;;;;;;;;;16.58;100.00;99653.31;5029160;28;19924;-81
2023/06/06 05:16:34;;;;;;;;;;;;;;;16.64;100.00;99657.97;5012894;28;19921;-81
2023/06/06 05:18:59;;;;;;;;;;;;;;;16.73;100.00;99659.53;5024466;28;19920;-80
2023/06/06 05:21:25;;;;;;;;;;;;;;;16.76;100.00;99661.03;5027165;28;20419;-81
2023/06/06 05:23:50;;;;;;;;;;;;;;;16.84;100.00;99658.28;5032672;28;20305;-86
2023/06/06 05:26:15;;;;;;;;;;;;;;;16.95;100.00;99654.38;5012271;28;19925;-78
2023/06/06 05:28:41;;;;;;;;;;;;;;;17.05;100.00;99654.91;5030550;28;19940;-77
2023/06/06 05:31:07;;;;;;;;;;;;;;;17.10;100.00;99660.53;5020428;28;19925;-82
2023/06/06 05:33:33;;;;;;;;;;;;;;;17.15;100.00;99655.47;5022778;28;20012;-77
2023/06/06 05:36:00;;;;;;;;;;;;;;;17.23;100.00;99663.41;5026718;28;19968;-76
2023/06/06 05:38:26;;;;;;;;;;;;;;;17.32;100.00;99661.50;5025516;28;19921;-76
2023/06/06 05:40:53;;;;;;;;;;;;;;;17.42;100.00;99662.88;5031853;28;19964;-78
2023/06/06 05:43:19;;;;;;;;;;;;;;;17.53;100.00;99657.06;5024050;28;19921;-80
2023/06/06 05:45:44;;;;;;;;;;;;;;;17.61;100.00;99660.69;5032290;28;19975;-78
2023/06/06 05:48:10;;;;;;;;;;;;;;;17.68;100.00;99656.25;5017813;28;19956;-78
2023/06/06 05:50:35;;;;;;;;;;;;;;;17.77;100.00;99650.63;5032510;28;19917;-77
2023/06/06 05:53:02;;;;;;;;;;;;;;;17.85;100.00;99663.03;5028374;28;19923;-78
2023/06/06 05:55:27;;;;;;;;;;;;;;;17.94;100.00;99656.59;5032602;28;19952;-78
2023/06/06 05:57:53;;;;;;;;;;;;;;;17.99;100.00;99659.50;5009104;28;20293;-78
2023/06/06 06:00:19;;;;;;;;;;;;;;;17.96;100.00;99659.91;5022866;28;19917;-78
2023/06/06 06:02:45;;;;;;;;;;;;;;;17.98;100.00;99658.69;5023577;28;20387;-81
2023/06/06 06:05:10;;;;;;;;;;;;;;;18.00;100.00;99655.84;5032545;28;20399;-86
2023/06/06 06:07:35;;;;;;;;;;;;;;;18.06;100.00;99654.25;5021952;28;19921;-87
2023/06/06 06:10:02;;;;;;;;;;;;;;;18.09;100.00;99660.03;5027789;28;19917;-89
2023/06/06 06:12:27;;;;;;;;;;;;;;;18.17;100.00;99654.59;5012149;28;19956;-85
2023/06/06 06:14:52;;;;;;;;;;;;;;;18.29;100.00;99655.75;5034113;28;19917;-86
2023/06/06 06:17:20;;;;;;;;;;;;;;;18.35;100.00;99662.16;5028959;28;20048;-87
2023/06/06 06:19:48;;;;;;;;;;;;;;;18.38;100.00;99657.25;5029735;28;19928;-87
2023/06/06 06:22:13;;;;;;;;;;;;;;;18.45;100.00;99665.34;5011062;28;19921;-87
2023/06/06 06:24:39;;;;;;;;;;;;;;;18.53;100.00;99656.38;5029509;28;19923;-87
2023/06/06 06:27:05;;;;;;;;;;;;;;;18.63;100.00;99662.25;5023654;28;20416;-87
2023/06/06 06:29:30;;;;;;;;;;;;;;;18.75;100.00;99658.88;5031364;28;19920;-86
2023/06/06 06:31:56;;;;;;;;;;;;;;;18.84;100.00;99659.59;5027421;28;19917;-86
2023/06/06 06:34:21;;;;;;;;;;;;;;;18.92;100.00;99656.75;5025056;28;20360;-86
2023/06/06 06:36:48;;;;;;;;;;;;;;;18.95;100.00;99651.03;5032303;28;20012;-87
2023/06/06 06:39:18;;;;;;;;;;;;;;;19.01;100.00;99658.28;5032407;28;19923;-87
2023/06/06 06:41:47;;;;;;;;;;;;;;;19.09;100.00;99658.09;5024744;28;19955;-87
2023/06/06 06:44:12;;;;;;;;;;;;;;;19.13;100.00;99659.41;5030716;28;19997;-86
2023/06/06 06:46:37;;;;;;;;;;;;;;;19.09;100.00;99662.63;5030966;28;20286;-86
2023/06/06 06:49:03;;;;;;;;;;;;;;;19.11;100.00;99666.78;5028538;28;19924;-87
2023/06/06 06:51:29;;;;;;;;;;;;;;;19.15;100.00;99665.34;4997164;28;19917;-87
2023/06/06 06:53:57;;;;;;;;;;;;;;;19.28;100.00;99666.47;5030704;28;19967;-88
2023/06/06 06:56:23;;;;;;;;;;;;;;;19.36;100.00;99667.16;5025676;28;19917;-87
2023/06/06 06:58:52;;;;;;;;;;;;;;;19.26;100.00;99669.38;5029720;28;19917;-87
2023/06/06 07:01:18;;;;;;;;;;;;;;;19.39;100.00;99671.28;5022663;28;20050;-87
2023/06/06 07:03:46;;;;;;;;;;;;;;;19.49;100.00;99677.16;5030049;28;20006;-87
2023/06/06 07:06:12;;;;;;;;;;;;;;;19.60;100.00;99673.91;5020525;28;20254;-87
2023/06/06 07:08:37;;;;;;;;;;;;;;;19.70;100.00;99673.53;5026493;28;20040;-85
2023/06/06 07:11:06;;;;;;;;;;;;;;;19.72;100.00;99680.38;5025387;28;20014;-88
2023/06/06 07:13:31;;;;;;;;;;;;;;;19.73;100.00;99679.34;5022932;28;19928;-86
2023/06/06 07:15:56;;;;;;;;;;;;;;;19.63;100.00;99678.84;5024432;28;19917;-85
2023/06/06 07:18:23;;;;;;;;;;;;;;;19.63;100.00;99676.19;5024656;28;19924;-85
2023/06/06 07:20:49;;;;;;;;;;;;;;;19.63;100.00;99673.50;5018082;28;19917;-86
2023/06/06 07:23:14;;;;;;;;;;;;;;;19.78;100.00;99668.84;5029080;28;19927;-86
2023/06/06 07:25:41;;;;;;;;;;;;;;;19.85;100.00;99669.69;5021098;28;20385;-86
2023/06/06 07:28:06;;;;;;;;;;;;;;;19.87;100.00;99667.66;5023759;28;20372;-85
2023/06/06 07:30:31;;;;;;;;;;;;;;;19.95;100.00;99675.53;5030305;28;19917;-85
2023/06/06 07:32:57;;;;;;;;;;;;;;;19.92;100.00;99670.53;5029859;28;19921;-85
2023/06/06 07:35:24;;;;;;;;;;;;;;;19.96;100.00;99671.81;5023775;28;20392;-85
2023/06/06 07:37:50;;;;;;;;;;;;;;;20.10;100.00;99669.16;5025685;28;20005;-86
2023/06/06 07:40:16;;;;;;;;;;;;;;;20.21;100.00;99674.75;5018697;28;20786;-85
2023/06/06 07:42:42;;;;;;;;;;;;;;;20.34;100.00;99674.00;5150864;22;20016;-85
2023/06/06 07:45:10;;;;;;;;;;;;;;;20.44;100.00;99669.91;4985765;28;20005;-85
2023/06/06 07:47:36;;;;;;;;;;;;;;;20.51;100.00;99674.44;4980206;28;19930;-86
2023/06/06 07:50:02;;;;;;;;;;;;;;;20.46;100.00;99672.38;4982945;28;19964;-86
2023/06/06 07:52:28;;;;;;;;;;;;;;;20.29;100.00;99663.03;4987721;28;19918;-86
2023/06/06 07:54:53;;;;;;;;;;;;;;;20.26;100.00;99664.25;4987430;28;19921;-86
2023/06/06 07:57:19;;;;;;;;;;;;;;;20.36;100.00;99667.44;4987441;28;20040;-85
2023/06/06 07:59:45;;;;;;;;;;;;;;;20.50;100.00;99657.53;4985392;28;19919;-85
2023/06/06 08:02:14;;;;;;;;;;;;;;;20.64;100.00;99661.91;4985136;28;19972;-86
2023/06/06 08:04:42;;;;;;;;;;;;;;;20.75;100.00;99653.25;4982942;28;19933;-85
2023/06/06 08:07:09;;;;;;;;;;;;;;;20.88;100.00;99654.28;4988743;28;19948;-85
2023/06/06 08:09:35;;;;;;;;;;;;;;;20.98;100.00;99657.34;4986839;28;19918;-86
2023/06/06 08:12:00;;;;;;;;;;;;;;;21.07;100.00;99653.44;4990935;28;19928;-85
2023/06/06 08:14:25;;;;;;;;;;;;;;;21.05;100.00;99655.50;4987585;28;19925;-87
2023/06/06 08:16:50;;;;;;;;;;;;;;;21.04;100.00;99648.47;4987751;28;19925;-87
2023/06/06 08:19:16;;;;;;;;;;;;;;;21.11;100.00;99647.44;4989081;28;20013;-85
2023/06/06 08:21:41;;;;;;;;;;;;;;;21.10;100.00;99659.22;4989086;28;19960;-85
2023/06/06 08:24:07;;;;;;;;;;;;;;;21.18;100.00;99650.16;4986855;28;19918;-85
2023/06/06 08:26:32;;;;;;;;;;;;;;;21.26;100.00;99652.63;4994955;28;19917;-86
2023/06/06 08:29:00;;;;;;;;;;;;;;;21.40;100.00;99659.59;4986502;28;19929;-86
2023/06/06 08:31:29;;;;;;;;;;;;;;;21.54;100.00;99655.88;4983573;28;19917;-85
2023/06/06 08:34:02;;;;;;;;;;;;;;;21.68;100.00;99651.25;4970759;28;19973;-86
2023/06/06 08:36:27;;;;;;;;;;;;;;;21.82;100.00;99652.03;5002281;28;19929;-87
2023/06/06 08:38:52;;;;;;;;;;;;;;;21.95;100.00;99649.34;5003392;28;19918;-86
2023/06/06 08:41:18;;;;;;;;;;;;;;;22.05;100.00;99658.56;5006200;28;19918;-84
2023/06/06 08:43:46;;;;;;;;;;;;;;;22.15;100.00;99657.31;5001680;28;20318;-86
2023/06/06 08:46:12;;;;;;;;;;;;;;;22.09;100.00;99656.28;4983876;28;20270;-87
2023/06/06 08:48:38;;;;;;;;;;;;;;;22.04;100.00;99656.09;4985230;28;20382;-86
2023/06/06 08:51:03;;;;;;;;;;;;;;;21.98;100.00;99656.94;4989740;28;19971;-84
2023/06/06 08:53:33;;;;;;;;;;;;;;;22.02;100.00;99650.97;4981934;28;19921;-81
2023/06/06 08:56:07;;;;;;;;;;;;;;;21.97;100.00;99655.31;4979841;28;20330;-83
2023/06/06 08:58:43;;;;;;;;;;;;;;;21.91;100.00;99653.47;4985614;28;19922;-84
2023/06/06 09:01:09;;;;;;;;;;;;;;;21.79;100.00;99649.78;4984131;28;19984;-83
2023/06/06 09:03:38;;;;;;;;;;;;;;;21.80;100.00;99644.19;4986416;28;20349;-84
2023/06/06 09:06:04;;;;;;;;;;;;;;;21.76;100.00;99634.09;4982512;28;20431;-82
2023/06/06 09:08:32;;;;;;;;;;;;;;;21.80;100.00;99643.34;4984399;28;20365;-82
2023/06/06 09:10:57;;;;;;;;;;;;;;;21.83;100.00;99638.41;4977525;28;19925;-84
2023/06/06 09:13:22;;;;;;;;;;;;;;;21.97;100.00;99639.22;4982541;28;19926;-84
2023/06/06 09:15:48;;;;;;;;;;;;;;;22.18;100.00;99638.88;4985711;28;19983;-84
2023/06/06 09:18:13;;;;;;;;;;;;;;;22.34;100.00;99630.28;4983716;28;20008;-85
2023/06/06 09:20:39;;;;;;;;;;;;;;;22.40;100.00;99634.81;4989346;28;20012;-85
2023/06/06 09:23:09;;;;;;;;;;;;;;;22.50;100.00;99638.91;4988843;28;20385;-86
2023/06/06 09:25:35;;;;;;;;;;;;;;;22.65;100.00;99637.53;4988590;28;20440;-86
2023/06/06 09:28:01;;;;;;;;;;;;;;;22.81;100.00;99636.19;4986903;28;19953;-86
2023/06/06 09:30:28;;;;;;;;;;;;;;;22.90;100.00;99634.88;4984444;28;19917;-84
2023/06/06 09:32:56;;;;;;;;;;;;;;;22.97;100.00;99641.03;4980365;28;20437;-87
2023/06/06 09:35:22;;;;;;;;;;;;;;;23.02;100.00;99632.28;4988841;28;19918;-86
2023/06/06 09:37:48;;;;;;;;;;;;;;;23.00;100.00;99634.34;4983494;28;19972;-82
2023/06/06 09:40:14;;;;;;;;;;;;;;;22.98;100.00;99629.19;4984900;28;19929;-85
2023/06/06 09:42:46;;;;;;;;;;;;;;;22.99;100.00;99633.53;4987124;28;20365;-86
2023/06/06 09:45:19;;;;;;;;;;;;;;;22.91;100.00;99625.75;4985783;28;20301;-88
2023/06/06 09:47:45;;;;;;;;;;;;;;;23.01;100.00;99628.75;4981254;28;19940;-83
2023/06/06 09:50:11;;;;;;;;;;;;;;;23.07;100.00;99625.19;4977368;28;19914;-84
2023/06/06 09:52:37;;;;;;;;;;;;;;;23.08;100.00;99621.47;4979896;28;19925;-84
2023/06/06 09:55:09;;;;;;;;;;;;;;;23.10;100.00;99627.41;4979203;28;20024;-84
2023/06/06 09:57:43;;;;;;;;;;;;;;;23.16;100.00;99623.84;4981529;28;19914;-83
2023/06/06 10:00:14;;;;;;;;;;;;;;;23.18;100.00;99613.69;4987311;28;19972;-85
2023/06/06 10:02:44;;;;;;;;;;;;;;;23.07;100.00;99617.13;4980430;28;20252;-81
2023/06/06 10:05:11;;;;;;;;;;;;;;;23.11;100.00;99615.63;4980255;28;19925;-79
2023/06/06 10:07:41;;;;;;;;;;;;;;;23.12;100.00;99611.06;4973593;28;19918;-82
2023/06/06 10:10:10;;;;;;;;;;;;;;;23.10;100.00;99608.56;4989237;28;19918;-81
2023/06/06 10:12:39;;;;;;;;;;;;;;;23.02;100.00;99608.88;4985345;28;19957;-82
2023/06/06 10:15:05;;;;;;;;;;;;;;;23.08;100.00;99610.69;4984188;28;19917;-82
2023/06/06 10:17:34;;;;;;;;;;;;;;;23.14;100.00;99609.81;4978513;28;19922;-82
2023/06/06 10:20:05;;;;;;;;;;;;;;;23.15;100.00;99616.81;4985213;28;19929;-83
2023/06/06 10:22:34;;;;;;;;;;;;;;;23.26;100.00;99618.78;4984895;28;19922;-81
2023/06/06 10:25:02;;;;;;;;;;;;;;;23.35;100.00;99615.78;4985713;28;19926;-83
2023/06/06 10:27:34;;;;;;;;;;;;;;;23.26;100.00;99618.78;4989614;28;19918;-83
2023/06/06 10:30:20;;;;;;;;;;;;;;;23.40;100.00;99614.06;4982917;28;20265;-83
2023/06/06 10:32:56;;;;;;;;;;;;;;;23.52;100.00;99616.88;4983606;28;20350;-83
2023/06/06 10:35:23;;;;;;;;;;;;;;;23.55;100.00;99611.03;4983034;28;20016;-83
2023/06/06 10:38:08;;;;;;;;;;;;;;;23.58;100.00;99605.19;4987636;28;20116;-85
2023/06/06 10:40:40;;;;;;;;;;;;;;;23.47;100.00;99603.25;4985994;28;20025;-82
2023/06/06 10:43:07;;;;;;;;;;;;;;;23.48;100.00;99604.91;4979839;28;20342;-83
2023/06/06 10:45:42;;;;;;;;;;;;;;;23.44;100.00;99611.75;4980188;28;20262;-84
2023/06/06 10:48:08;;;;;;;;;;;;;;;23.52;100.00;99606.91;4982839;28;20001;-82
2023/06/06 10:50:36;;;;;;;;;;;;;;;23.57;100.00;99608.94;4991723;28;19952;-83
2023/06/06 10:53:06;;;;;;;;;;;;;;;23.53;100.00;99605.03;4984295;28;19918;-81
2023/06/06 10:55:33;;;;;;;;;;;;;;;23.53;100.00;99603.19;4981177;28;19929;-81
2023/06/06 10:58:07;;;;;;;;;;;;;;;23.55;100.00;99606.47;4964756;28;19925;-83
2023/06/06 11:00:33;;;;;;;;;;;;;;;23.58;100.00;99610.56;4963053;28;19925;-84
2023/06/06 11:03:05;;;;;;;;;;;;;;;23.59;100.00;99594.19;4984042;28;19918;-85
2023/06/06 11:05:31;;;;;;;;;;;;;;;23.59;100.00;99601.44;4976658;28;19970;-84
2023/06/06 11:08:02;;;;;;;;;;;;;;;23.64;100.00;99604.28;4976709;28;19941;-86
2023/06/06 11:10:46;;;;;;;;;;;;;;;23.72;100.00;99595.91;4981530;28;19929;-82
2023/06/06 11:13:25;;;;;;;;;;;;;;;23.77;100.00;99598.75;4980556;28;19917;-86
2023/06/06 11:15:57;;;;;;;;;;;;;;;23.83;100.00;99589.75;4975625;28;19918;-84
2023/06/06 11:18:36;;;;;;;;;;;;;;;23.76;100.00;99591.69;4983753;28;19956;-85
2023/06/06 11:21:02;;;;;;;;;;;;;;;23.78;100.00;99600.38;4984024;28;19925;-82
2023/06/06 11:23:37;;;;;;;;;;;;;;;23.85;100.00;99590.34;4979448;28;19918;-84
2023/06/06 11:26:02;;;;;;;;;;;;;;;23.94;100.00;99585.44;4974665;28;19918;-84
2023/06/06 11:28:29;;;;;;;;;;;;;;;24.01;100.00;99586.19;4982595;28;19925;-85
2023/06/06 11:30:55;;;;;;;;;;;;;;;23.95;100.00;99582.53;4982723;28;19922;-84
2023/06/06 11:33:20;;;;;;;;;;;;;;;23.92;100.00;99574.88;4983646;28;20262;-84
2023/06/06 11:35:46;;;;;;;;;;;;;;;23.96;100.00;99567.19;4989056;28;19917;-85
2023/06/06 11:38:11;;;;;;;;;;;;;;;23.93;100.00;99564.94;4985330;28;20684;-85
2023/06/06 11:40:37;;;;;;;;;;;;;;;23.96;100.00;99562.63;4985621;28;20330;-84
2023/06/06 11:43:02;;;;;;;;;;;;;;;23.98;100.00;99563.19;4995899;28;19918;-84
2023/06/06 11:45:27;;;;;;;;;;;;;;;24.00;100.00;99560.28;4988726;28;19928;-83
2023/06/06 11:47:53;;;;;;;;;;;;;;;24.05;100.00;99563.94;4998323;28;19972;-84
2023/06/06 11:50:28;;;;;;;;;;;;;;;24.06;100.00;99559.38;4990054;28;19941;-82
2023/06/06 11:52:53;;;;;;;;;;;;;;;24.05;100.00;99555.84;4992789;28;19973;-83
2023/06/06 11:55:19;;;;;;;;;;;;;;;24.08;100.00;99563.50;5000651;28;19922;-82
2023/06/06 11:57:44;;;;;;;;;;;;;;;24.12;100.00;99557.63;4999389;28;19918;-83
2023/06/06 12:00:14;;;;;;;;;;;;;;;24.13;99.88;99559.28;4996311;28;19917;-83
2023/06/06 12:02:40;;;;;;;;;;;;;;;24.11;99.45;99553.28;4977620;28;19947;-84
2023/06/06 12:05:20;;;;;;;;;;;;;;;24.06;99.89;99554.78;4984578;28;20259;-84
2023/06/06 12:07:49;;;;;;;;;;;;;;;24.14;99.44;99545.56;4980279;28;19925;-86
2023/06/06 12:10:22;;;;;;;;;;;;;;;24.42;98.30;99542.25;4991552;28;19959;-85
2023/06/06 12:12:50;;;;;;;;;;;;;;;24.80;95.57;99541.78;4990884;28;19921;-86
2023/06/06 12:15:15;;;;;;;;;;;;;;;24.99;94.79;99542.50;4996064;28;20428;-83
2023/06/06 12:17:40;;;;;;;;;;;;;;;25.07;93.93;99540.28;4988332;28;19964;-85
2023/06/06 12:20:07;;;;;;;;;;;;;;;25.14;89.69;99540.16;4983763;28;19921;-79
2023/06/06 12:22:34;;;;;;;;;;;;;;;25.44;90.35;99535.38;4973546;28;19917;-81
2023/06/06 12:24:59;;;;;;;;;;;;;;;25.59;90.82;99543.81;4982682;28;19926;-85
2023/06/06 12:27:29;;;;;;;;;;;;;;;25.59;90.95;99538.41;4994903;28;19924;-91
2023/06/06 12:30:00;;;;;;;;;;;;;;;25.56;90.82;99533.50;4986544;28;20385;-92
2023/06/06 12:32:26;;;;;;;;;;;;;;;25.47;90.99;99529.50;4999820;28;19918;-94
2023/06/06 12:35:05;;;;;;;;;;;;;;;25.43;91.77;99522.94;5001478;28;19910;-95
2023/06/06 12:37:37;;;;;;;;;;;;;;;25.43;91.81;99520.22;5010201;28;19925;-94